sensor_id;sensor_type;location;lat;lon;timestamp;P1;durP1;ratioP1;P2;durP2;ratioP2
54539;SDS011;40438;52.992;18.604;2024-02-16T00:00:54;41.10;;;18.35;;
54539;SDS011;40438;52.992;18.604;2024-02-16T00:03:20;44.28;;;18.85;;
54539;SDS011;40438;52.992;18.604;2024-02-16T00:05:46;44.42;;;19.63;;
54539;SDS011;40438;52.992;18.604;2024-02-16T00:08:11;45.30;;;19.73;;
54539;SDS011;40438;52.992;18.604;2024-02-16T00:10:37;41.50;;;19.58;;
54539;SDS011;40438;52.992;18.604;2024-02-16T00:13:03;44.78;;;20.15;;
54539;SDS011;40438;52.992;18.604;2024-02-16T00:15:30;43.30;;;19.08;;
54539;SDS011;40438;52.992;18.604;2024-02-16T00:17:56;39.20;;;18.77;;
54539;SDS011;40438;52.992;18.604;2024-02-16T00:20:22;42.65;;;18.35;;
54539;SDS011;40438;52.992;18.604;2024-02-16T00:22:47;41.58;;;18.42;;
54539;SDS011;40438;52.992;18.604;2024-02-16T00:25:13;44.15;;;18.42;;
54539;SDS011;40438;52.992;18.604;2024-02-16T00:27:39;38.13;;;19.20;;
54539;SDS011;40438;52.992;18.604;2024-02-16T00:30:05;38.83;;;17.55;;
54539;SDS011;40438;52.992;18.604;2024-02-16T00:32:33;41.30;;;19.02;;
54539;SDS011;40438;52.992;18.604;2024-02-16T00:34:59;45.70;;;19.88;;
54539;SDS011;40438;52.992;18.604;2024-02-16T00:37:25;46.42;;;19.83;;
54539;SDS011;40438;52.992;18.604;2024-02-16T00:39:51;39.28;;;17.38;;
54539;SDS011;40438;52.992;18.604;2024-02-16T00:42:16;43.85;;;18.38;;
54539;SDS011;40438;52.992;18.604;2024-02-16T00:44:42;46.65;;;18.95;;
54539;SDS011;40438;52.992;18.604;2024-02-16T00:47:08;37.58;;;19.25;;
54539;SDS011;40438;52.992;18.604;2024-02-16T00:49:35;45.95;;;18.92;;
54539;SDS011;40438;52.992;18.604;2024-02-16T00:52:01;41.70;;;19.27;;
54539;SDS011;40438;52.992;18.604;2024-02-16T00:54:27;50.25;;;19.48;;
54539;SDS011;40438;52.992;18.604;2024-02-16T00:56:53;49.25;;;19.15;;
54539;SDS011;40438;52.992;18.604;2024-02-16T00:59:18;48.88;;;19.17;;
54539;SDS011;40438;52.992;18.604;2024-02-16T01:01:45;35.80;;;18.58;;
54539;SDS011;40438;52.992;18.604;2024-02-16T01:04:10;40.85;;;17.73;;
54539;SDS011;40438;52.992;18.604;2024-02-16T01:06:38;37.72;;;17.25;;
54539;SDS011;40438;52.992;18.604;2024-02-16T01:09:03;41.90;;;17.73;;
54539;SDS011;40438;52.992;18.604;2024-02-16T01:11:29;38.00;;;16.70;;
54539;SDS011;40438;52.992;18.604;2024-02-16T01:13:55;37.35;;;17.33;;
54539;SDS011;40438;52.992;18.604;2024-02-16T01:16:21;37.22;;;17.45;;
54539;SDS011;40438;52.992;18.604;2024-02-16T01:18:46;32.60;;;15.30;;
54539;SDS011;40438;52.992;18.604;2024-02-16T01:21:12;39.25;;;17.05;;
54539;SDS011;40438;52.992;18.604;2024-02-16T01:23:39;40.65;;;16.90;;
54539;SDS011;40438;52.992;18.604;2024-02-16T01:26:05;35.92;;;17.00;;
54539;SDS011;40438;52.992;18.604;2024-02-16T01:28:31;41.83;;;18.23;;
54539;SDS011;40438;52.992;18.604;2024-02-16T01:30:56;37.10;;;17.23;;
54539;SDS011;40438;52.992;18.604;2024-02-16T01:33:22;38.70;;;17.60;;
54539;SDS011;40438;52.992;18.604;2024-02-16T01:35:48;38.72;;;17.50;;
54539;SDS011;40438;52.992;18.604;2024-02-16T01:38:14;39.72;;;18.00;;
54539;SDS011;40438;52.992;18.604;2024-02-16T01:40:41;40.70;;;17.33;;
54539;SDS011;40438;52.992;18.604;2024-02-16T01:43:06;40.10;;;18.42;;
54539;SDS011;40438;52.992;18.604;2024-02-16T01:45:32;39.63;;;17.83;;
54539;SDS011;40438;52.992;18.604;2024-02-16T01:47:58;37.90;;;17.60;;
54539;SDS011;40438;52.992;18.604;2024-02-16T01:50:24;36.40;;;16.70;;
54539;SDS011;40438;52.992;18.604;2024-02-16T01:52:50;41.35;;;18.17;;
54539;SDS011;40438;52.992;18.604;2024-02-16T01:55:16;35.10;;;17.55;;
54539;SDS011;40438;52.992;18.604;2024-02-16T01:57:44;36.70;;;18.20;;
54539;SDS011;40438;52.992;18.604;2024-02-16T02:00:11;36.13;;;17.30;;
54539;SDS011;40438;52.992;18.604;2024-02-16T02:02:37;40.03;;;17.13;;
54539;SDS011;40438;52.992;18.604;2024-02-16T02:05:04;39.85;;;17.38;;
54539;SDS011;40438;52.992;18.604;2024-02-16T02:07:30;43.90;;;18.60;;
54539;SDS011;40438;52.992;18.604;2024-02-16T02:09:55;40.75;;;17.80;;
54539;SDS011;40438;52.992;18.604;2024-02-16T02:12:21;38.92;;;17.42;;
54539;SDS011;40438;52.992;18.604;2024-02-16T02:14:49;41.22;;;17.05;;
54539;SDS011;40438;52.992;18.604;2024-02-16T02:17:15;38.90;;;17.02;;
54539;SDS011;40438;52.992;18.604;2024-02-16T02:19:41;35.53;;;17.15;;
54539;SDS011;40438;52.992;18.604;2024-02-16T02:22:11;33.58;;;16.40;;
54539;SDS011;40438;52.992;18.604;2024-02-16T02:24:39;34.75;;;16.15;;
54539;SDS011;40438;52.992;18.604;2024-02-16T02:27:05;36.53;;;16.30;;
54539;SDS011;40438;52.992;18.604;2024-02-16T02:29:30;36.03;;;16.85;;
54539;SDS011;40438;52.992;18.604;2024-02-16T02:31:56;32.50;;;16.17;;
54539;SDS011;40438;52.992;18.604;2024-02-16T02:34:22;31.70;;;15.88;;
54539;SDS011;40438;52.992;18.604;2024-02-16T02:36:48;45.38;;;17.33;;
54539;SDS011;40438;52.992;18.604;2024-02-16T02:39:15;33.90;;;15.90;;
54539;SDS011;40438;52.992;18.604;2024-02-16T02:41:41;37.35;;;16.33;;
54539;SDS011;40438;52.992;18.604;2024-02-16T02:44:06;39.30;;;17.10;;
54539;SDS011;40438;52.992;18.604;2024-02-16T02:46:32;38.15;;;17.25;;
54539;SDS011;40438;52.992;18.604;2024-02-16T02:48:58;34.67;;;16.73;;
54539;SDS011;40438;52.992;18.604;2024-02-16T02:51:23;34.55;;;16.38;;
54539;SDS011;40438;52.992;18.604;2024-02-16T02:53:49;32.25;;;15.70;;
54539;SDS011;40438;52.992;18.604;2024-02-16T02:56:16;39.65;;;16.73;;
54539;SDS011;40438;52.992;18.604;2024-02-16T02:58:42;31.15;;;15.95;;
54539;SDS011;40438;52.992;18.604;2024-02-16T03:01:08;32.00;;;15.00;;
54539;SDS011;40438;52.992;18.604;2024-02-16T03:03:34;30.67;;;14.43;;
54539;SDS011;40438;52.992;18.604;2024-02-16T03:06:00;35.20;;;15.40;;
54539;SDS011;40438;52.992;18.604;2024-02-16T03:08:25;33.40;;;16.00;;
54539;SDS011;40438;52.992;18.604;2024-02-16T03:10:51;37.67;;;14.68;;
54539;SDS011;40438;52.992;18.604;2024-02-16T03:13:18;36.20;;;16.02;;
54539;SDS011;40438;52.992;18.604;2024-02-16T03:15:44;28.60;;;14.20;;
54539;SDS011;40438;52.992;18.604;2024-02-16T03:18:10;31.20;;;13.98;;
54539;SDS011;40438;52.992;18.604;2024-02-16T03:20:36;31.67;;;13.85;;
54539;SDS011;40438;52.992;18.604;2024-02-16T03:23:01;31.27;;;14.60;;
54539;SDS011;40438;52.992;18.604;2024-02-16T03:25:27;32.58;;;14.20;;
54539;SDS011;40438;52.992;18.604;2024-02-16T03:27:53;27.95;;;13.07;;
54539;SDS011;40438;52.992;18.604;2024-02-16T03:30:20;31.33;;;14.07;;
54539;SDS011;40438;52.992;18.604;2024-02-16T03:32:47;31.92;;;14.68;;
54539;SDS011;40438;52.992;18.604;2024-02-16T03:35:13;28.98;;;13.30;;
54539;SDS011;40438;52.992;18.604;2024-02-16T03:37:39;34.83;;;14.25;;
54539;SDS011;40438;52.992;18.604;2024-02-16T03:40:05;29.67;;;14.13;;
54539;SDS011;40438;52.992;18.604;2024-02-16T03:42:31;34.40;;;14.40;;
54539;SDS011;40438;52.992;18.604;2024-02-16T03:44:57;32.78;;;14.38;;
54539;SDS011;40438;52.992;18.604;2024-02-16T03:47:24;28.65;;;14.63;;
54539;SDS011;40438;52.992;18.604;2024-02-16T03:49:50;27.15;;;12.95;;
54539;SDS011;40438;52.992;18.604;2024-02-16T03:52:16;32.65;;;14.13;;
54539;SDS011;40438;52.992;18.604;2024-02-16T03:54:42;29.48;;;13.93;;
54539;SDS011;40438;52.992;18.604;2024-02-16T03:57:08;31.70;;;13.65;;
54539;SDS011;40438;52.992;18.604;2024-02-16T03:59:34;31.73;;;14.57;;
54539;SDS011;40438;52.992;18.604;2024-02-16T04:02:00;33.38;;;15.10;;
54539;SDS011;40438;52.992;18.604;2024-02-16T04:04:27;34.60;;;15.60;;
54539;SDS011;40438;52.992;18.604;2024-02-16T04:06:53;29.75;;;14.10;;
54539;SDS011;40438;52.992;18.604;2024-02-16T04:09:18;36.42;;;13.95;;
54539;SDS011;40438;52.992;18.604;2024-02-16T04:11:44;30.80;;;14.52;;
54539;SDS011;40438;52.992;18.604;2024-02-16T04:14:10;31.30;;;14.52;;
54539;SDS011;40438;52.992;18.604;2024-02-16T04:16:36;29.80;;;15.15;;
54539;SDS011;40438;52.992;18.604;2024-02-16T04:19:02;30.30;;;15.25;;
54539;SDS011;40438;52.992;18.604;2024-02-16T04:21:29;30.70;;;15.15;;
54539;SDS011;40438;52.992;18.604;2024-02-16T04:23:55;32.55;;;14.63;;
54539;SDS011;40438;52.992;18.604;2024-02-16T04:26:21;31.52;;;13.77;;
54539;SDS011;40438;52.992;18.604;2024-02-16T04:28:46;31.88;;;14.50;;
54539;SDS011;40438;52.992;18.604;2024-02-16T04:31:12;31.08;;;14.45;;
54539;SDS011;40438;52.992;18.604;2024-02-16T04:33:38;26.35;;;13.65;;
54539;SDS011;40438;52.992;18.604;2024-02-16T04:36:05;35.63;;;14.32;;
54539;SDS011;40438;52.992;18.604;2024-02-16T04:38:33;27.88;;;13.88;;
54539;SDS011;40438;52.992;18.604;2024-02-16T04:40:58;33.85;;;13.73;;
54539;SDS011;40438;52.992;18.604;2024-02-16T04:43:24;29.85;;;14.70;;
54539;SDS011;40438;52.992;18.604;2024-02-16T04:45:50;29.73;;;13.50;;
54539;SDS011;40438;52.992;18.604;2024-02-16T04:48:16;29.42;;;13.15;;
54539;SDS011;40438;52.992;18.604;2024-02-16T04:50:41;29.98;;;13.20;;
54539;SDS011;40438;52.992;18.604;2024-02-16T04:53:07;28.17;;;12.45;;
54539;SDS011;40438;52.992;18.604;2024-02-16T04:55:34;29.55;;;13.50;;
54539;SDS011;40438;52.992;18.604;2024-02-16T04:58:00;24.08;;;12.88;;
54539;SDS011;40438;52.992;18.604;2024-02-16T05:00:26;25.42;;;13.30;;
54539;SDS011;40438;52.992;18.604;2024-02-16T05:02:51;27.17;;;13.10;;
54539;SDS011;40438;52.992;18.604;2024-02-16T05:05:17;31.42;;;12.82;;
54539;SDS011;40438;52.992;18.604;2024-02-16T05:07:43;33.72;;;13.43;;
54539;SDS011;40438;52.992;18.604;2024-02-16T05:10:13;32.97;;;13.32;;
54539;SDS011;40438;52.992;18.604;2024-02-16T05:12:41;26.63;;;12.35;;
54539;SDS011;40438;52.992;18.604;2024-02-16T05:15:07;30.85;;;12.80;;
54539;SDS011;40438;52.992;18.604;2024-02-16T05:17:33;33.90;;;14.60;;
54539;SDS011;40438;52.992;18.604;2024-02-16T05:19:59;26.27;;;13.90;;
54539;SDS011;40438;52.992;18.604;2024-02-16T05:22:25;28.35;;;12.90;;
54539;SDS011;40438;52.992;18.604;2024-02-16T05:24:51;34.63;;;13.60;;
54539;SDS011;40438;52.992;18.604;2024-02-16T05:27:16;34.85;;;12.90;;
54539;SDS011;40438;52.992;18.604;2024-02-16T05:29:44;31.67;;;13.13;;
54539;SDS011;40438;52.992;18.604;2024-02-16T05:32:10;29.67;;;13.20;;
54539;SDS011;40438;52.992;18.604;2024-02-16T05:34:36;31.25;;;13.98;;
54539;SDS011;40438;52.992;18.604;2024-02-16T05:37:02;27.65;;;13.18;;
54539;SDS011;40438;52.992;18.604;2024-02-16T05:39:27;30.30;;;14.20;;
54539;SDS011;40438;52.992;18.604;2024-02-16T05:41:53;29.65;;;13.10;;
54539;SDS011;40438;52.992;18.604;2024-02-16T05:44:19;28.05;;;13.75;;
54539;SDS011;40438;52.992;18.604;2024-02-16T05:46:46;32.60;;;13.02;;
54539;SDS011;40438;52.992;18.604;2024-02-16T05:49:12;33.00;;;14.50;;
54539;SDS011;40438;52.992;18.604;2024-02-16T05:51:38;28.45;;;13.80;;
54539;SDS011;40438;52.992;18.604;2024-02-16T05:54:04;32.22;;;13.88;;
54539;SDS011;40438;52.992;18.604;2024-02-16T05:56:29;31.88;;;13.65;;
54539;SDS011;40438;52.992;18.604;2024-02-16T05:58:55;24.92;;;12.65;;
54539;SDS011;40438;52.992;18.604;2024-02-16T06:01:21;29.67;;;14.02;;
54539;SDS011;40438;52.992;18.604;2024-02-16T06:03:48;33.80;;;13.90;;
54539;SDS011;40438;52.992;18.604;2024-02-16T06:06:14;31.20;;;13.48;;
54539;SDS011;40438;52.992;18.604;2024-02-16T06:08:39;27.33;;;12.95;;
54539;SDS011;40438;52.992;18.604;2024-02-16T06:11:06;29.75;;;13.63;;
54539;SDS011;40438;52.992;18.604;2024-02-16T06:13:33;31.00;;;14.23;;
54539;SDS011;40438;52.992;18.604;2024-02-16T06:15:58;29.83;;;13.77;;
54539;SDS011;40438;52.992;18.604;2024-02-16T06:18:24;34.83;;;14.20;;
54539;SDS011;40438;52.992;18.604;2024-02-16T06:20:51;32.60;;;14.82;;
54539;SDS011;40438;52.992;18.604;2024-02-16T06:23:17;32.45;;;15.18;;
54539;SDS011;40438;52.992;18.604;2024-02-16T06:25:43;36.40;;;14.82;;
54539;SDS011;40438;52.992;18.604;2024-02-16T06:28:08;33.83;;;14.70;;
54539;SDS011;40438;52.992;18.604;2024-02-16T06:30:34;39.10;;;14.48;;
54539;SDS011;40438;52.992;18.604;2024-02-16T06:33:00;34.50;;;14.38;;
54539;SDS011;40438;52.992;18.604;2024-02-16T06:35:26;37.30;;;15.30;;
54539;SDS011;40438;52.992;18.604;2024-02-16T06:37:53;40.75;;;15.77;;
54539;SDS011;40438;52.992;18.604;2024-02-16T06:40:18;35.97;;;14.55;;
54539;SDS011;40438;52.992;18.604;2024-02-16T06:42:44;38.50;;;13.70;;
54539;SDS011;40438;52.992;18.604;2024-02-16T06:45:10;34.00;;;14.18;;
54539;SDS011;40438;52.992;18.604;2024-02-16T06:47:36;35.88;;;15.25;;
54539;SDS011;40438;52.992;18.604;2024-02-16T06:50:01;36.47;;;15.63;;
54539;SDS011;40438;52.992;18.604;2024-02-16T06:52:27;39.40;;;16.20;;
54539;SDS011;40438;52.992;18.604;2024-02-16T06:54:55;37.13;;;16.08;;
54539;SDS011;40438;52.992;18.604;2024-02-16T06:57:20;33.15;;;16.17;;
54539;SDS011;40438;52.992;18.604;2024-02-16T06:59:46;36.88;;;15.98;;
54539;SDS011;40438;52.992;18.604;2024-02-16T07:02:12;36.72;;;14.88;;
54539;SDS011;40438;52.992;18.604;2024-02-16T07:04:39;32.58;;;15.52;;
54539;SDS011;40438;52.992;18.604;2024-02-16T07:07:05;33.90;;;14.63;;
54539;SDS011;40438;52.992;18.604;2024-02-16T07:09:31;34.05;;;15.43;;
54539;SDS011;40438;52.992;18.604;2024-02-16T07:11:58;35.65;;;15.57;;
54539;SDS011;40438;52.992;18.604;2024-02-16T07:14:24;33.05;;;13.43;;
54539;SDS011;40438;52.992;18.604;2024-02-16T07:16:49;33.35;;;14.27;;
54539;SDS011;40438;52.992;18.604;2024-02-16T07:19:15;33.05;;;13.85;;
54539;SDS011;40438;52.992;18.604;2024-02-16T07:21:41;32.80;;;15.40;;
54539;SDS011;40438;52.992;18.604;2024-02-16T07:24:07;38.20;;;15.82;;
54539;SDS011;40438;52.992;18.604;2024-02-16T07:26:33;28.75;;;14.07;;
54539;SDS011;40438;52.992;18.604;2024-02-16T07:29:00;35.20;;;15.88;;
54539;SDS011;40438;52.992;18.604;2024-02-16T07:31:25;32.92;;;16.13;;
54539;SDS011;40438;52.992;18.604;2024-02-16T07:33:55;39.92;;;16.02;;
54539;SDS011;40438;52.992;18.604;2024-02-16T07:36:21;35.33;;;15.10;;
54539;SDS011;40438;52.992;18.604;2024-02-16T07:38:47;28.40;;;14.80;;
54539;SDS011;40438;52.992;18.604;2024-02-16T07:41:12;33.78;;;14.23;;
54539;SDS011;40438;52.992;18.604;2024-02-16T07:43:38;31.75;;;15.02;;
54539;SDS011;40438;52.992;18.604;2024-02-16T07:46:05;35.67;;;15.35;;
54539;SDS011;40438;52.992;18.604;2024-02-16T07:48:31;31.63;;;14.02;;
54539;SDS011;40438;52.992;18.604;2024-02-16T07:50:57;35.65;;;16.20;;
54539;SDS011;40438;52.992;18.604;2024-02-16T07:53:22;28.63;;;14.20;;
54539;SDS011;40438;52.992;18.604;2024-02-16T07:55:48;31.45;;;14.63;;
54539;SDS011;40438;52.992;18.604;2024-02-16T07:58:14;34.00;;;15.77;;
54539;SDS011;40438;52.992;18.604;2024-02-16T08:00:40;32.70;;;14.95;;
54539;SDS011;40438;52.992;18.604;2024-02-16T08:03:07;33.97;;;15.45;;
54539;SDS011;40438;52.992;18.604;2024-02-16T08:05:33;29.45;;;14.80;;
54539;SDS011;40438;52.992;18.604;2024-02-16T08:07:58;32.00;;;15.30;;
54539;SDS011;40438;52.992;18.604;2024-02-16T08:10:24;34.35;;;14.60;;
54539;SDS011;40438;52.992;18.604;2024-02-16T08:12:50;34.30;;;15.00;;
54539;SDS011;40438;52.992;18.604;2024-02-16T08:15:16;31.75;;;15.13;;
54539;SDS011;40438;52.992;18.604;2024-02-16T08:17:42;34.15;;;14.88;;
54539;SDS011;40438;52.992;18.604;2024-02-16T08:20:09;36.03;;;15.98;;
54539;SDS011;40438;52.992;18.604;2024-02-16T08:22:35;33.53;;;15.18;;
54539;SDS011;40438;52.992;18.604;2024-02-16T08:25:01;32.17;;;14.60;;
54539;SDS011;40438;52.992;18.604;2024-02-16T08:27:27;32.58;;;15.52;;
54539;SDS011;40438;52.992;18.604;2024-02-16T08:29:53;38.65;;;18.42;;
54539;SDS011;40438;52.992;18.604;2024-02-16T08:32:18;38.33;;;17.30;;
54539;SDS011;40438;52.992;18.604;2024-02-16T08:34:44;34.70;;;15.57;;
54539;SDS011;40438;52.992;18.604;2024-02-16T08:37:11;33.05;;;15.98;;
54539;SDS011;40438;52.992;18.604;2024-02-16T08:39:37;35.85;;;16.98;;
54539;SDS011;40438;52.992;18.604;2024-02-16T08:42:03;36.50;;;17.73;;
54539;SDS011;40438;52.992;18.604;2024-02-16T08:44:29;39.55;;;17.45;;
54539;SDS011;40438;52.992;18.604;2024-02-16T08:46:55;43.53;;;17.35;;
54539;SDS011;40438;52.992;18.604;2024-02-16T08:49:21;39.97;;;16.23;;
54539;SDS011;40438;52.992;18.604;2024-02-16T08:51:47;37.90;;;16.52;;
54539;SDS011;40438;52.992;18.604;2024-02-16T08:54:14;32.30;;;16.48;;
54539;SDS011;40438;52.992;18.604;2024-02-16T08:56:40;35.97;;;15.50;;
54539;SDS011;40438;52.992;18.604;2024-02-16T08:59:05;37.78;;;15.85;;
54539;SDS011;40438;52.992;18.604;2024-02-16T09:01:31;38.70;;;17.20;;
54539;SDS011;40438;52.992;18.604;2024-02-16T09:03:57;38.88;;;16.25;;
54539;SDS011;40438;52.992;18.604;2024-02-16T09:06:23;36.03;;;16.67;;
54539;SDS011;40438;52.992;18.604;2024-02-16T09:08:49;34.85;;;16.40;;
54539;SDS011;40438;52.992;18.604;2024-02-16T09:11:16;36.95;;;15.50;;
54539;SDS011;40438;52.992;18.604;2024-02-16T09:13:41;32.25;;;16.17;;
54539;SDS011;40438;52.992;18.604;2024-02-16T09:16:07;34.80;;;16.80;;
54539;SDS011;40438;52.992;18.604;2024-02-16T09:18:33;32.42;;;16.08;;
54539;SDS011;40438;52.992;18.604;2024-02-16T09:20:59;35.28;;;15.85;;
54539;SDS011;40438;52.992;18.604;2024-02-16T09:23:25;31.25;;;15.65;;
54539;SDS011;40438;52.992;18.604;2024-02-16T09:25:51;32.38;;;16.27;;
54539;SDS011;40438;52.992;18.604;2024-02-16T09:28:18;33.42;;;15.27;;
54539;SDS011;40438;52.992;18.604;2024-02-16T09:30:44;30.75;;;14.93;;
54539;SDS011;40438;52.992;18.604;2024-02-16T09:33:10;33.55;;;15.25;;
54539;SDS011;40438;52.992;18.604;2024-02-16T09:35:36;27.75;;;13.82;;
54539;SDS011;40438;52.992;18.604;2024-02-16T09:38:01;26.73;;;13.40;;
54539;SDS011;40438;52.992;18.604;2024-02-16T09:40:27;29.73;;;13.70;;
54539;SDS011;40438;52.992;18.604;2024-02-16T09:42:53;29.23;;;13.18;;
54539;SDS011;40438;52.992;18.604;2024-02-16T09:45:20;31.52;;;13.75;;
54539;SDS011;40438;52.992;18.604;2024-02-16T09:47:46;25.77;;;13.40;;
54539;SDS011;40438;52.992;18.604;2024-02-16T09:50:12;28.13;;;12.65;;
54539;SDS011;40438;52.992;18.604;2024-02-16T09:52:38;25.98;;;12.70;;
54539;SDS011;40438;52.992;18.604;2024-02-16T09:55:06;29.15;;;13.25;;
54539;SDS011;40438;52.992;18.604;2024-02-16T09:57:35;25.63;;;13.05;;
54539;SDS011;40438;52.992;18.604;2024-02-16T10:00:01;25.83;;;12.95;;
54539;SDS011;40438;52.992;18.604;2024-02-16T10:02:28;25.85;;;12.32;;
54539;SDS011;40438;52.992;18.604;2024-02-16T10:05:09;25.38;;;12.57;;
54539;SDS011;40438;52.992;18.604;2024-02-16T10:07:36;24.50;;;13.18;;
54539;SDS011;40438;52.992;18.604;2024-02-16T10:10:02;27.67;;;13.48;;
54539;SDS011;40438;52.992;18.604;2024-02-16T10:12:28;25.70;;;13.70;;
54539;SDS011;40438;52.992;18.604;2024-02-16T10:14:54;25.05;;;12.27;;
54539;SDS011;40438;52.992;18.604;2024-02-16T10:17:20;26.60;;;13.80;;
54539;SDS011;40438;52.992;18.604;2024-02-16T10:19:56;27.60;;;13.45;;
54539;SDS011;40438;52.992;18.604;2024-02-16T10:22:22;27.30;;;12.65;;
54539;SDS011;40438;52.992;18.604;2024-02-16T10:24:48;24.80;;;13.40;;
54539;SDS011;40438;52.992;18.604;2024-02-16T10:27:14;27.65;;;13.10;;
54539;SDS011;40438;52.992;18.604;2024-02-16T10:29:40;29.40;;;14.70;;
54539;SDS011;40438;52.992;18.604;2024-02-16T10:32:08;27.63;;;13.15;;
54539;SDS011;40438;52.992;18.604;2024-02-16T10:34:35;23.95;;;12.43;;
54539;SDS011;40438;52.992;18.604;2024-02-16T10:37:05;24.27;;;12.65;;
54539;SDS011;40438;52.992;18.604;2024-02-16T10:39:31;25.27;;;13.07;;
54539;SDS011;40438;52.992;18.604;2024-02-16T10:41:58;28.67;;;13.30;;
54539;SDS011;40438;52.992;18.604;2024-02-16T10:44:25;35.55;;;14.50;;
54539;SDS011;40438;52.992;18.604;2024-02-16T10:46:53;28.15;;;13.80;;
54539;SDS011;40438;52.992;18.604;2024-02-16T10:49:20;26.65;;;13.30;;
54539;SDS011;40438;52.992;18.604;2024-02-16T10:51:46;27.52;;;13.18;;
54539;SDS011;40438;52.992;18.604;2024-02-16T10:54:17;28.30;;;13.57;;
54539;SDS011;40438;52.992;18.604;2024-02-16T10:56:44;26.92;;;13.18;;
54539;SDS011;40438;52.992;18.604;2024-02-16T10:59:10;23.17;;;12.38;;
54539;SDS011;40438;52.992;18.604;2024-02-16T11:01:37;28.65;;;14.13;;
54539;SDS011;40438;52.992;18.604;2024-02-16T11:04:04;29.63;;;13.95;;
54539;SDS011;40438;52.992;18.604;2024-02-16T11:06:30;28.60;;;12.52;;
54539;SDS011;40438;52.992;18.604;2024-02-16T11:09:01;24.40;;;12.43;;
54539;SDS011;40438;52.992;18.604;2024-02-16T11:11:29;25.60;;;13.38;;
54539;SDS011;40438;52.992;18.604;2024-02-16T11:13:55;27.63;;;13.60;;
54539;SDS011;40438;52.992;18.604;2024-02-16T11:16:20;27.23;;;13.35;;
54539;SDS011;40438;52.992;18.604;2024-02-16T11:18:46;32.45;;;13.25;;
54539;SDS011;40438;52.992;18.604;2024-02-16T11:21:12;21.85;;;11.95;;
54539;SDS011;40438;52.992;18.604;2024-02-16T11:23:40;26.63;;;14.35;;
54539;SDS011;40438;52.992;18.604;2024-02-16T11:26:09;29.45;;;14.55;;
54539;SDS011;40438;52.992;18.604;2024-02-16T11:28:38;29.40;;;13.93;;
54539;SDS011;40438;52.992;18.604;2024-02-16T11:31:05;26.70;;;16.42;;
54539;SDS011;40438;52.992;18.604;2024-02-16T11:33:31;25.83;;;13.30;;
54539;SDS011;40438;52.992;18.604;2024-02-16T11:35:57;27.73;;;16.00;;
54539;SDS011;40438;52.992;18.604;2024-02-16T11:38:24;27.50;;;13.73;;
54539;SDS011;40438;52.992;18.604;2024-02-16T11:40:54;22.48;;;12.95;;
54539;SDS011;40438;52.992;18.604;2024-02-16T11:43:20;55.15;;;29.80;;
54539;SDS011;40438;52.992;18.604;2024-02-16T11:45:48;60.75;;;36.05;;
54539;SDS011;40438;52.992;18.604;2024-02-16T11:48:18;33.10;;;19.83;;
54539;SDS011;40438;52.992;18.604;2024-02-16T11:50:44;28.38;;;14.43;;
54539;SDS011;40438;52.992;18.604;2024-02-16T11:53:10;29.73;;;13.75;;
54539;SDS011;40438;52.992;18.604;2024-02-16T11:55:45;27.20;;;13.30;;
54539;SDS011;40438;52.992;18.604;2024-02-16T11:58:12;27.80;;;12.70;;
54539;SDS011;40438;52.992;18.604;2024-02-16T12:00:37;26.38;;;12.00;;
54539;SDS011;40438;52.992;18.604;2024-02-16T12:03:06;22.23;;;11.85;;
54539;SDS011;40438;52.992;18.604;2024-02-16T12:05:32;27.60;;;12.38;;
54539;SDS011;40438;52.992;18.604;2024-02-16T12:07:58;26.33;;;12.93;;
54539;SDS011;40438;52.992;18.604;2024-02-16T12:10:24;28.45;;;11.68;;
54539;SDS011;40438;52.992;18.604;2024-02-16T12:12:50;22.45;;;11.77;;
54539;SDS011;40438;52.992;18.604;2024-02-16T12:15:16;19.88;;;11.43;;
54539;SDS011;40438;52.992;18.604;2024-02-16T12:17:42;21.15;;;11.43;;
54539;SDS011;40438;52.992;18.604;2024-02-16T12:20:12;19.90;;;10.40;;
54539;SDS011;40438;52.992;18.604;2024-02-16T12:22:38;21.80;;;11.60;;
54539;SDS011;40438;52.992;18.604;2024-02-16T12:25:04;18.90;;;10.82;;
54539;SDS011;40438;52.992;18.604;2024-02-16T12:27:30;20.95;;;11.02;;
54539;SDS011;40438;52.992;18.604;2024-02-16T12:29:56;17.42;;;10.20;;
54539;SDS011;40438;52.992;18.604;2024-02-16T12:32:21;16.73;;;9.43;;
54539;SDS011;40438;52.992;18.604;2024-02-16T12:34:48;17.35;;;10.45;;
54539;SDS011;40438;52.992;18.604;2024-02-16T12:37:16;20.73;;;10.68;;
54539;SDS011;40438;52.992;18.604;2024-02-16T12:39:41;17.40;;;9.45;;
54539;SDS011;40438;52.992;18.604;2024-02-16T12:42:07;23.00;;;11.55;;
54539;SDS011;40438;52.992;18.604;2024-02-16T12:44:33;18.20;;;9.43;;
54539;SDS011;40438;52.992;18.604;2024-02-16T12:46:58;18.88;;;9.40;;
54539;SDS011;40438;52.992;18.604;2024-02-16T12:49:24;19.05;;;9.38;;
54539;SDS011;40438;52.992;18.604;2024-02-16T12:51:50;15.45;;;9.15;;
54539;SDS011;40438;52.992;18.604;2024-02-16T12:54:17;20.83;;;9.50;;
54539;SDS011;40438;52.992;18.604;2024-02-16T12:56:43;16.17;;;8.95;;
54539;SDS011;40438;52.992;18.604;2024-02-16T12:59:09;16.95;;;9.48;;
54539;SDS011;40438;52.992;18.604;2024-02-16T13:01:35;16.38;;;9.13;;
54539;SDS011;40438;52.992;18.604;2024-02-16T13:04:00;19.98;;;9.27;;
54539;SDS011;40438;52.992;18.604;2024-02-16T13:06:26;16.40;;;8.20;;
54539;SDS011;40438;52.992;18.604;2024-02-16T13:08:52;18.52;;;8.95;;
54539;SDS011;40438;52.992;18.604;2024-02-16T13:11:19;13.85;;;8.63;;
54539;SDS011;40438;52.992;18.604;2024-02-16T13:13:45;15.15;;;8.02;;
54539;SDS011;40438;52.992;18.604;2024-02-16T13:16:12;14.30;;;8.02;;
54539;SDS011;40438;52.992;18.604;2024-02-16T13:18:38;17.13;;;8.85;;
54539;SDS011;40438;52.992;18.604;2024-02-16T13:21:03;15.15;;;7.85;;
54539;SDS011;40438;52.992;18.604;2024-02-16T13:23:29;15.25;;;8.05;;
54539;SDS011;40438;52.992;18.604;2024-02-16T13:25:55;13.90;;;7.35;;
54539;SDS011;40438;52.992;18.604;2024-02-16T13:28:22;19.10;;;7.90;;
54539;SDS011;40438;52.992;18.604;2024-02-16T13:30:48;15.95;;;6.93;;
54539;SDS011;40438;52.992;18.604;2024-02-16T13:33:14;15.70;;;7.43;;
54539;SDS011;40438;52.992;18.604;2024-02-16T13:35:39;16.52;;;7.53;;
54539;SDS011;40438;52.992;18.604;2024-02-16T13:38:05;16.98;;;7.65;;
54539;SDS011;40438;52.992;18.604;2024-02-16T13:40:31;13.75;;;7.15;;
54539;SDS011;40438;52.992;18.604;2024-02-16T13:42:57;16.10;;;7.95;;
54539;SDS011;40438;52.992;18.604;2024-02-16T13:45:24;14.77;;;7.88;;
54539;SDS011;40438;52.992;18.604;2024-02-16T13:47:49;17.77;;;8.95;;
54539;SDS011;40438;52.992;18.604;2024-02-16T13:50:15;16.60;;;8.45;;
54539;SDS011;40438;52.992;18.604;2024-02-16T13:52:41;14.25;;;7.88;;
54539;SDS011;40438;52.992;18.604;2024-02-16T13:55:07;16.70;;;8.20;;
54539;SDS011;40438;52.992;18.604;2024-02-16T13:57:33;12.85;;;7.82;;
54539;SDS011;40438;52.992;18.604;2024-02-16T13:59:59;14.90;;;8.30;;
54539;SDS011;40438;52.992;18.604;2024-02-16T14:02:26;18.55;;;8.18;;
54539;SDS011;40438;52.992;18.604;2024-02-16T14:04:52;17.08;;;7.97;;